createdAt,value
2018-09-20T00:56:14.935Z,9.2
2018-09-20T00:57:04.878Z,9.3
2018-09-20T00:57:54.943Z,9.3
2018-09-20T00:58:45.000Z,9.2
2018-09-20T00:59:35.049Z,9.2
2018-09-20T01:00:25.272Z,9.2
2018-09-20T01:01:15.180Z,9.2
2018-09-20T01:02:05.250Z,9.2
2018-09-20T01:02:55.356Z,9.1
2018-09-20T01:03:45.081Z,9.1
2018-09-20T01:04:35.439Z,9.1
2018-09-20T01:05:25.216Z,9.1
2018-09-20T01:06:15.802Z,9.1
2018-09-20T01:07:05.661Z,9.1
2018-09-20T01:07:55.723Z,9.1
2018-09-20T01:08:45.449Z,9.1
2018-09-20T01:09:35.512Z,9
2018-09-20T01:10:25.877Z,9.1
2018-09-20T01:11:15.634Z,9
2018-09-20T01:12:06.000Z,9
2018-09-20T01:12:56.044Z,9
2018-09-20T01:13:45.537Z,9
2018-09-20T01:14:36.176Z,8.9
2018-09-20T01:15:26.226Z,8.9
2018-09-20T01:16:15.971Z,8.9
2018-09-20T01:17:06.657Z,8.9
2018-09-20T01:17:56.676Z,8.9
2018-09-20T01:18:46.219Z,8.9
2018-09-20T01:19:36.549Z,8.9
2018-09-20T01:20:26.624Z,8.9
2018-09-20T01:21:17.219Z,8.9
2018-09-20T01:22:06.729Z,8.8
2018-09-20T01:22:56.524Z,8.8
2018-09-20T01:23:46.574Z,8.8
2018-09-20T01:24:36.921Z,8.8
2018-09-20T01:25:26.699Z,8.8
2018-09-20T01:26:17.144Z,8.8
2018-09-20T01:27:07.357Z,8.7
2018-09-20T01:27:57.196Z,8.7
2018-09-20T01:28:47.246Z,8.7
2018-09-20T01:29:37.298Z,8.6
2018-09-20T01:30:27.071Z,8.6
2018-09-20T01:31:17.428Z,8.6
2018-09-20T01:32:07.486Z,8.6
2018-09-20T01:32:57.253Z,8.6
2018-09-20T01:33:47.609Z,8.6
2018-09-20T01:34:37.666Z,8.6
2018-09-20T01:35:28.094Z,8.6
2018-09-20T01:36:17.806Z,8.5
2018-09-20T01:37:07.856Z,8.5
2018-09-20T01:37:57.661Z,8.5
2018-09-20T01:38:47.975Z,8.4
2018-09-20T01:39:38.051Z,8.4
2018-09-20T01:40:27.826Z,8.4
2018-09-20T01:41:17.883Z,8.4
2018-09-20T01:42:08.230Z,8.4
2018-09-20T01:42:58.015Z,8.4
2018-09-20T01:43:48.391Z,8.4
2018-09-20T01:44:38.418Z,8.4
2018-09-20T01:45:28.488Z,8.3
2018-09-20T01:46:18.545Z,8.3
2018-09-20T01:47:08.615Z,8.3
2018-09-20T01:47:58.675Z,8.3
2018-09-20T01:48:48.745Z,8.3
2018-09-20T01:49:38.505Z,8.3
2018-09-20T01:50:28.875Z,8.3
2018-09-20T01:51:18.930Z,8.2
2018-09-20T01:52:09.019Z,8.2
2018-09-20T01:52:59.034Z,8.2
2018-09-20T01:53:49.105Z,8.2
2018-09-20T01:54:38.891Z,8.2
2018-09-20T01:55:29.226Z,8.1
2018-09-20T01:56:19.007Z,8.1
2018-09-20T01:57:09.599Z,8.1
2018-09-20T01:57:59.132Z,8.1
2018-09-20T01:58:49.477Z,8.1
2018-09-20T01:59:39.529Z,8.1
2018-09-20T02:00:29.600Z,8.1
2018-09-20T02:01:19.669Z,8.1
2018-09-20T02:02:09.443Z,8.1
2018-09-20T02:02:59.566Z,8
2018-09-20T02:03:49.859Z,8
2018-09-20T02:04:39.931Z,8
2018-09-20T02:05:29.690Z,8
2018-09-20T02:06:19.761Z,8
2018-09-20T02:07:10.116Z,7.9
2018-09-20T02:08:00.164Z,7.9
2018-09-20T02:08:49.944Z,7.9
2018-09-20T02:09:40.544Z,7.9
2018-09-20T02:10:30.349Z,7.9
2018-09-20T02:11:20.121Z,7.9
2018-09-20T02:12:10.483Z,7.9
2018-09-20T02:13:00.251Z,7.9
2018-09-20T02:13:50.592Z,7.9
2018-09-20T02:14:40.422Z,7.9
2018-09-20T02:15:30.723Z,7.9
2018-09-20T02:16:20.775Z,7.9
2018-09-20T02:17:10.858Z,7.9
2018-09-20T02:18:00.903Z,7.9
2018-09-20T02:18:50.697Z,7.9
2018-09-20T02:19:41.299Z,7.9
2018-09-20T02:20:31.148Z,7.8
2018-09-20T02:21:20.868Z,7.9
2018-09-20T02:22:11.225Z,7.8
2018-09-20T02:23:01.282Z,7.8
2018-09-20T02:23:51.340Z,7.8
2018-09-20T02:24:41.456Z,7.8
2018-09-20T02:25:31.188Z,7.8
2018-09-20T02:26:21.782Z,7.8
2018-09-20T02:27:11.593Z,7.8
2018-09-20T02:28:01.706Z,7.8
2018-09-20T02:28:51.743Z,7.8
2018-09-20T02:29:41.795Z,7.8
2018-09-20T02:30:31.563Z,7.8
2018-09-20T02:31:21.910Z,7.8
2018-09-20T02:32:11.702Z,7.8
2018-09-20T02:33:02.305Z,7.8
2018-09-20T02:33:51.804Z,7.7
2018-09-20T02:34:42.147Z,7.7
2018-09-20T02:35:31.926Z,7.7
2018-09-20T02:36:22.315Z,7.7
2018-09-20T02:37:12.347Z,7.7
2018-09-20T02:38:02.650Z,7.7
2018-09-20T02:38:52.457Z,7.7
2018-09-20T02:39:42.268Z,7.7
2018-09-20T02:40:32.320Z,7.7
2018-09-20T02:41:22.653Z,7.7
2018-09-20T02:42:12.725Z,7.7
2018-09-20T02:43:02.217Z,7.6
2018-09-20T02:43:52.839Z,7.6
2018-09-20T02:44:42.639Z,7.6
2018-09-20T02:45:32.972Z,7.6
2018-09-20T02:46:23.027Z,7.6
2018-09-20T02:47:13.093Z,7.6
2018-09-20T02:48:03.167Z,7.6
2018-09-20T02:48:52.634Z,7.6
2018-09-20T02:49:42.986Z,7.6
2018-09-20T02:50:33.341Z,7.6
2018-09-20T02:51:23.401Z,7.6
2018-09-20T02:52:13.181Z,7.6
2018-09-20T02:53:03.526Z,7.6
2018-09-20T02:53:53.599Z,7.6
2018-09-20T02:54:43.659Z,7.6
2018-09-20T02:55:33.780Z,7.6
2018-09-20T02:56:23.492Z,7.6
2018-09-20T02:57:13.549Z,7.5
2018-09-20T02:58:03.915Z,7.5
2018-09-20T02:58:54.080Z,7.5
2018-09-20T02:59:44.282Z,7.5
2018-09-20T03:00:34.089Z,7.5
2018-09-20T03:01:24.161Z,7.5
2018-09-20T03:02:14.461Z,7.5
2018-09-20T03:03:04.323Z,7.5
2018-09-20T03:03:54.335Z,7.6
2018-09-20T03:04:44.111Z,7.5
2018-09-20T03:05:34.165Z,7.5
2018-09-20T03:06:24.585Z,7.5
2018-09-20T03:07:14.580Z,7.4
2018-09-20T03:08:04.887Z,7.4
2018-09-20T03:08:54.665Z,7.5
2018-09-20T03:09:44.780Z,7.4
2018-09-20T03:10:35.107Z,7.4
2018-09-20T03:11:24.892Z,7.4
2018-09-20T03:12:14.956Z,7.4
2018-09-20T03:13:05.019Z,7.4
2018-09-20T03:13:55.403Z,7.4
2018-09-20T03:14:45.149Z,7.4
2018-09-20T03:15:34.941Z,7.4
2018-09-20T03:16:25.277Z,7.4
2018-09-20T03:17:15.341Z,7.4
2018-09-20T03:18:05.115Z,7.4
2018-09-20T03:18:55.757Z,7.4
2018-09-20T03:19:45.825Z,7.4
2018-09-20T03:20:35.579Z,7.4
2018-09-20T03:21:25.639Z,7.3
2018-09-20T03:22:15.702Z,7.3
2018-09-20T03:23:05.777Z,7.3
2018-09-20T03:23:55.836Z,7.3
2018-09-20T03:24:45.869Z,7.3
2018-09-20T03:25:36.278Z,7.3
2018-09-20T03:26:26.014Z,7.3
2018-09-20T03:27:16.079Z,7.3
2018-09-20T03:28:06.151Z,7.3
2018-09-20T03:28:55.909Z,7.3
2018-09-20T03:29:46.261Z,7.3
2018-09-20T03:30:36.817Z,7.3
2018-09-20T03:31:26.404Z,7.3
2018-09-20T03:32:16.514Z,7.2
2018-09-20T03:33:06.523Z,7.2
2018-09-20T03:33:56.577Z,7.2
2018-09-20T03:34:46.950Z,7.2
2018-09-20T03:35:36.751Z,7.2
2018-09-20T03:36:26.814Z,7.2
2018-09-20T03:37:16.856Z,7.2
2018-09-20T03:38:06.625Z,7.1
2018-09-20T03:38:56.953Z,7.1
2018-09-20T03:39:47.023Z,7.1
2018-09-20T03:40:37.081Z,7.1
2018-09-20T03:41:27.148Z,7.1
2018-09-20T03:42:17.202Z,7.1
2018-09-20T03:43:06.968Z,7.1
2018-09-20T03:43:57.335Z,7.1
2018-09-20T03:44:47.104Z,7.1
2018-09-20T03:45:37.162Z,7.1
2018-09-20T03:46:27.280Z,7
2018-09-20T03:47:17.577Z,7.1
2018-09-20T03:48:07.628Z,7
2018-09-20T03:48:57.405Z,7
2018-09-20T03:49:47.768Z,7
2018-09-20T03:50:37.537Z,7
2018-09-20T03:51:28.140Z,6.9
2018-09-20T03:52:17.955Z,7
2018-09-20T03:53:07.725Z,6.9
2018-09-20T03:53:57.488Z,6.9
2018-09-20T03:54:48.140Z,6.9
2018-09-20T03:55:38.185Z,6.9
2018-09-20T03:56:28.239Z,6.9
2018-09-20T03:57:18.324Z,6.9
2018-09-20T03:58:08.381Z,6.9
2018-09-20T03:58:58.141Z,6.9
2018-09-20T03:59:48.239Z,6.8
2018-09-20T04:00:38.300Z,6.8
2018-09-20T04:01:28.634Z,6.8
2018-09-20T04:02:18.948Z,6.8
2018-09-20T04:03:08.737Z,6.8
2018-09-20T04:03:58.824Z,6.8
2018-09-20T04:04:48.878Z,6.8
2018-09-20T04:05:38.654Z,6.8
2018-09-20T04:06:28.714Z,6.8
2018-09-20T04:07:19.306Z,6.8
2018-09-20T04:08:09.122Z,6.7
2018-09-20T04:08:59.174Z,6.7
2018-09-20T04:09:49.642Z,6.7
2018-09-20T04:10:39.304Z,6.7
2018-09-20T04:11:29.076Z,6.6
2018-09-20T04:12:19.412Z,6.6
2018-09-20T04:13:09.497Z,6.6
2018-09-20T04:13:59.562Z,6.6
2018-09-20T04:14:49.620Z,6.6
2018-09-20T04:15:39.387Z,6.6
2018-09-20T04:16:29.725Z,6.6
2018-09-20T04:17:19.785Z,6.6
2018-09-20T04:18:09.854Z,6.6
2018-09-20T04:18:59.632Z,6.5
2018-09-20T04:19:49.974Z,6.5
2018-09-20T04:20:40.042Z,6.5
2018-09-20T04:21:29.835Z,6.5
2018-09-20T04:22:19.644Z,6.5
2018-09-20T04:23:10.189Z,6.5
2018-09-20T04:24:00.294Z,6.4
2018-09-20T04:24:50.347Z,6.4
2018-09-20T04:25:40.416Z,6.4
2018-09-20T04:26:30.494Z,6.4
2018-09-20T04:27:20.274Z,6.4
2018-09-20T04:28:10.611Z,6.4
2018-09-20T04:29:00.666Z,6.4
2018-09-20T04:29:50.737Z,6.4
2018-09-20T04:30:40.779Z,6.4
2018-09-20T04:31:30.847Z,6.4
2018-09-20T04:32:20.923Z,6.4
2018-09-20T04:33:10.994Z,6.4
2018-09-20T04:34:00.789Z,6.4
2018-09-20T04:34:51.097Z,6.3
2018-09-20T04:35:41.178Z,6.4
2018-09-20T04:36:30.657Z,6.4
2018-09-20T04:37:21.296Z,6.3
2018-09-20T04:38:11.353Z,6.3
2018-09-20T04:39:01.123Z,6.3
2018-09-20T04:39:51.476Z,6.3
2018-09-20T04:40:41.239Z,6.3
2018-09-20T04:41:31.596Z,6.3
2018-09-20T04:42:21.651Z,6.3
2018-09-20T04:43:11.711Z,6.3
2018-09-20T04:44:01.776Z,6.4
2018-09-20T04:44:51.853Z,6.3
2018-09-20T04:45:41.947Z,6.3
2018-09-20T04:46:31.685Z,6.3
2018-09-20T04:47:22.043Z,6.3
2018-09-20T04:48:12.218Z,6.4
2018-09-20T04:49:02.161Z,6.4
2018-09-20T04:49:52.218Z,6.4
2018-09-20T04:50:42.276Z,6.4
2018-09-20T04:51:32.326Z,6.4
2018-09-20T04:52:22.393Z,6.4
2018-09-20T04:53:12.778Z,6.4
2018-09-20T04:54:02.518Z,6.4
2018-09-20T04:54:52.310Z,6.4
2018-09-20T04:55:42.645Z,6.5
2018-09-20T04:56:32.719Z,6.5
2018-09-20T04:57:22.785Z,6.6
2018-09-20T04:58:12.855Z,6.6
2018-09-20T04:59:03.173Z,6.6
2018-09-20T04:59:53.086Z,6.7
2018-09-20T05:00:43.023Z,6.8
2018-09-20T05:01:33.098Z,6.8
2018-09-20T05:02:23.142Z,6.8
2018-09-20T05:03:12.961Z,6.9
2018-09-20T05:04:03.275Z,7
2018-09-20T05:04:53.322Z,7.1
2018-09-20T05:05:43.380Z,7.2
2018-09-20T05:06:33.444Z,7.3
2018-09-20T05:07:23.507Z,7.4
2018-09-20T05:08:13.569Z,7.5
2018-09-20T05:25:19.823Z,11.7
2018-09-20T05:26:09.352Z,12
2018-09-20T05:26:59.360Z,12.3
2018-09-20T05:27:49.151Z,12.6
2018-09-20T05:28:39.203Z,12.9
2018-09-20T05:29:29.340Z,13.2
2018-09-20T05:30:19.606Z,13.6
2018-09-20T05:31:09.378Z,13.9
2018-09-20T05:31:59.731Z,14.2
2018-09-20T05:32:49.795Z,14.5
2018-09-20T05:33:39.856Z,14.8
2018-09-20T05:34:29.905Z,15.2
2018-09-20T05:35:19.744Z,15.6
2018-09-20T05:36:09.748Z,15.9
2018-09-20T05:37:00.105Z,16.3
2018-09-20T05:37:49.897Z,16.6
2018-09-20T05:39:30.283Z,17.4
2018-09-20T05:40:20.343Z,17.8
2018-09-20T05:41:10.372Z,18.2
2018-09-20T05:42:00.478Z,18.6
2018-09-20T05:42:50.540Z,19.1
2018-09-20T05:43:41.060Z,19.4
2018-09-20T05:44:30.672Z,19.9
2018-09-20T05:45:20.447Z,20.3
2018-09-20T05:46:10.830Z,20.7
2018-09-20T05:47:50.914Z,21.6
2018-09-20T05:48:40.969Z,22
2018-09-20T05:49:31.040Z,22.5
2018-09-20T05:50:21.084Z,22.9
2018-09-20T05:51:11.166Z,23.4
2018-09-20T05:52:01.209Z,23.9
2018-09-20T05:52:51.000Z,24.3
2018-09-20T05:53:41.359Z,24.8
2018-09-20T05:54:31.460Z,25.3
2018-09-20T05:55:21.580Z,25.7
2018-09-20T05:56:11.598Z,26.1
2018-09-20T05:57:01.855Z,26.6
2018-09-20T05:57:51.678Z,27.1
2018-09-20T05:58:41.745Z,27.6
2018-09-20T05:59:31.518Z,28.1
2018-09-20T06:00:21.569Z,28.5
2018-09-20T06:01:11.921Z,29
2018-09-20T06:02:01.973Z,29.5
2018-09-20T06:02:52.039Z,30
2018-09-20T06:03:42.084Z,30.4
2018-09-20T06:04:32.146Z,30.9
2018-09-20T06:05:22.216Z,31.4
2018-09-20T06:06:12.019Z,31.9
2018-09-20T06:07:02.359Z,32.4
2018-09-20T06:07:52.428Z,32.9
2018-09-20T06:08:42.482Z,33.4
2018-09-20T06:09:32.245Z,33.9
2018-09-20T06:10:22.581Z,34.4
2018-09-20T06:11:12.370Z,34.9
2018-09-20T06:12:02.733Z,29.2
2018-09-20T06:12:52.765Z,18.6
2018-09-20T06:13:42.848Z,32.4
2018-09-20T06:14:32.915Z,42.9
2018-09-20T06:15:22.978Z,43.8
2018-09-20T06:16:13.033Z,43.8
2018-09-20T06:17:02.799Z,43.1
2018-09-20T06:17:53.145Z,42.1
2018-09-20T06:18:42.930Z,41.6
2018-09-20T06:19:32.985Z,41.3
2018-09-20T06:20:23.329Z,41.1
2018-09-20T06:21:13.100Z,40.9
2018-09-20T06:22:02.928Z,40.8
2018-09-20T06:22:53.260Z,40.7
2018-09-20T06:23:43.588Z,40.6
2018-09-20T06:24:33.643Z,40.6
2018-09-20T06:25:23.744Z,40.6
2018-09-20T06:26:13.765Z,40.8
2018-09-20T06:27:03.567Z,40.9
2018-09-20T06:27:53.912Z,41.2
2018-09-20T06:28:43.969Z,41.4
2018-09-20T06:29:34.032Z,41.8
2018-09-20T06:30:23.819Z,42.3
2018-09-20T06:31:14.177Z,42.7
2018-09-20T06:32:04.254Z,43.1
2018-09-20T06:32:54.289Z,40.2
2018-09-20T06:33:44.339Z,42.2
2018-09-20T06:34:34.131Z,47.6
2018-09-20T06:35:24.474Z,47.7
2018-09-20T06:36:14.287Z,50
2018-09-20T06:37:04.605Z,50.7
2018-09-20T06:37:54.672Z,50.4
2018-09-20T06:38:44.708Z,49.6
2018-09-20T06:39:34.792Z,48.9
2018-09-20T06:40:24.867Z,48.6
2018-09-20T06:41:14.906Z,48.5
2018-09-20T06:42:04.671Z,48.4
2018-09-20T06:42:55.039Z,48.1
2018-09-20T06:43:45.083Z,47.7
2018-09-20T06:44:34.879Z,47.1
2018-09-20T06:45:24.637Z,46.4
2018-09-20T06:46:15.567Z,45.8
2018-09-20T06:47:05.336Z,45
2018-09-20T06:47:55.137Z,44.4
2018-09-20T06:48:45.459Z,44
2018-09-20T06:49:35.570Z,43.6
2018-09-20T06:50:25.722Z,43.3
2018-09-20T06:51:15.911Z,42.8
2018-09-20T06:52:05.723Z,42.6
2018-09-20T06:52:55.825Z,42.5
2018-09-20T06:53:45.818Z,42.5
2018-09-20T06:54:35.608Z,42.5
2018-09-20T06:55:26.002Z,42.4
2018-09-20T06:56:15.733Z,42.5
2018-09-20T06:57:06.098Z,42.7
2018-09-20T06:57:56.151Z,42.8
2018-09-20T06:58:46.249Z,42.9
2018-09-20T06:59:36.278Z,43
2018-09-20T07:00:26.328Z,43.2
2018-09-20T07:01:16.394Z,43.4
2018-09-20T07:02:06.498Z,43.5
2018-09-20T07:02:56.834Z,43.7
2018-09-20T07:03:46.030Z,43.9
2018-09-20T07:04:36.382Z,44.1
2018-09-20T07:05:26.721Z,44.3
2018-09-20T07:06:16.768Z,44.4
2018-09-20T07:07:06.828Z,44.6
2018-09-20T07:07:56.656Z,44.8
2018-09-20T07:08:46.985Z,44.9
2018-09-20T07:09:37.030Z,45.1
2018-09-20T07:10:26.813Z,45.3
2018-09-20T07:11:17.160Z,45.4
2018-09-20T07:12:07.232Z,45.6
2018-09-20T07:12:56.972Z,45.8
2018-09-20T07:13:47.473Z,46
2018-09-20T07:14:37.414Z,46.1
2018-09-20T07:15:26.886Z,46.3
2018-09-20T07:16:17.534Z,46.4
2018-09-20T07:17:07.624Z,46.7
2018-09-20T07:17:57.694Z,46.8
2018-09-20T07:18:47.722Z,47
2018-09-20T07:19:37.816Z,47.1
2018-09-20T07:20:28.375Z,47.3
2018-09-20T07:21:17.949Z,47.4
2018-09-20T07:22:08.029Z,47.6
2018-09-20T07:22:57.742Z,47.8
2018-09-20T07:23:47.811Z,47.9
2018-09-20T07:24:37.879Z,48.1
2018-09-20T07:25:28.363Z,48.3
2018-09-20T07:26:18.006Z,48.4
2018-09-20T07:27:08.325Z,48.6
2018-09-20T07:27:58.412Z,48.8
2018-09-20T07:28:48.481Z,48.9
2018-09-20T07:29:38.589Z,49
2018-09-20T07:30:28.606Z,48.8
2018-09-20T07:31:18.666Z,48.6
2018-09-20T07:32:08.421Z,47.9
2018-09-20T07:32:58.797Z,47.6
2018-09-20T07:33:49.098Z,47.8
2018-09-20T07:34:38.919Z,48
2018-09-20T07:35:28.965Z,48.2
2018-09-20T07:36:19.042Z,48.4
2018-09-20T07:37:09.098Z,48.6
2018-09-20T07:37:59.146Z,48.8
2018-09-20T07:38:48.941Z,48.9
2018-09-20T07:39:39.291Z,49
2018-09-20T07:40:29.089Z,49.1
2018-09-20T07:41:19.413Z,48.9
2018-09-20T07:42:09.465Z,48.7
2018-09-20T07:42:59.528Z,48.4
2018-09-20T07:43:49.313Z,48.2
2018-09-20T07:44:39.390Z,48.3
2018-09-20T07:45:29.433Z,48.5
2018-09-20T07:46:19.791Z,48.7
2018-09-20T07:47:09.887Z,48.9
2018-09-20T07:47:59.904Z,49.1
2018-09-20T07:48:49.981Z,49.3
2018-09-20T07:49:40.031Z,49.5
2018-09-20T07:50:30.088Z,49.6
2018-09-20T07:51:19.864Z,49.8
2018-09-20T07:52:10.215Z,50
2018-09-20T07:53:00.002Z,50.2
2018-09-20T07:53:50.553Z,50.4
2018-09-20T07:54:40.427Z,50.6
2018-09-20T07:55:30.185Z,50.8
2018-09-20T07:56:20.550Z,50.9
2018-09-20T07:57:10.598Z,51.1
2018-09-20T07:58:00.652Z,51.3
2018-09-20T07:58:50.709Z,51.4
2018-09-20T07:59:40.788Z,51.6
2018-09-20T08:00:30.564Z,51.8
2018-09-20T08:02:10.692Z,52.1
2018-09-20T08:03:00.811Z,52.3
2018-09-20T08:03:51.249Z,52.4
2018-09-20T08:04:41.403Z,52.6
2018-09-20T08:05:31.651Z,52.8
2018-09-20T08:06:21.302Z,52.9
2018-09-20T08:07:11.578Z,53.1
2018-09-20T08:08:01.482Z,53.3
2018-09-20T08:08:51.466Z,53.4
2018-09-20T08:09:41.591Z,53.5
2018-09-20T08:10:31.868Z,53.7
2018-09-20T08:11:21.668Z,53.8
2018-09-20T08:12:11.758Z,53.9
2018-09-20T08:13:01.879Z,54.1
2018-09-20T08:13:51.854Z,54.3
2018-09-20T08:14:41.643Z,54.4
2018-09-20T08:15:31.706Z,54.5
2018-09-20T08:16:21.768Z,54.6
2018-09-20T08:17:12.108Z,54.8
2018-09-20T08:18:02.161Z,54.9
2018-09-20T08:18:52.695Z,55
2018-09-20T08:19:41.731Z,55.1
2018-09-20T08:20:32.123Z,55.3
2018-09-20T08:21:22.523Z,55.4
2018-09-20T08:22:12.483Z,55.6
2018-09-20T08:23:02.545Z,55.6
2018-09-20T08:23:52.608Z,55.8
2018-09-20T08:24:42.675Z,55.9
2018-09-20T08:25:32.771Z,56
2018-09-20T08:26:22.230Z,56.1
2018-09-20T08:27:12.914Z,56.3
2018-09-20T08:28:02.944Z,56.4
2018-09-20T08:28:53.035Z,56.5
2018-09-20T08:29:43.050Z,56.6
2018-09-20T08:30:33.109Z,56.8
2018-09-20T08:31:23.180Z,56.9
2018-09-20T08:32:13.252Z,57
2018-09-20T08:33:03.308Z,57.1
2018-09-20T08:33:53.374Z,57.3
2018-09-20T08:34:43.429Z,57.4
2018-09-20T08:35:33.499Z,57.5
2018-09-20T08:36:23.281Z,57.6
2018-09-20T08:38:03.699Z,57.9
2018-09-20T08:38:53.742Z,57.9
2018-09-20T08:39:43.517Z,58.1
2018-09-20T08:40:33.587Z,58.2
2018-09-20T08:41:23.927Z,58.3
2018-09-20T08:42:14.149Z,58.4
2018-09-20T08:43:03.774Z,58.5
2018-09-20T08:44:44.254Z,58.8
2018-09-20T08:45:34.239Z,58.9
2018-09-20T08:46:24.026Z,58.9
2018-09-20T08:47:14.115Z,59.1
2018-09-20T08:48:04.550Z,59.2
2018-09-20T08:48:54.228Z,59.3
2018-09-20T08:49:44.860Z,59.4
2018-09-20T08:50:34.403Z,59.5
2018-09-20T08:51:24.712Z,59.6
2018-09-20T08:52:14.763Z,59.8
2018-09-20T08:53:04.824Z,59.9
2018-09-20T08:53:54.960Z,60
2018-09-20T08:54:45.055Z,60.1
2018-09-20T08:55:35.025Z,60.2
2018-09-20T08:56:25.116Z,60.3
2018-09-20T08:57:15.442Z,60.4
2018-09-20T08:58:04.937Z,60.5
2018-09-20T08:58:55.265Z,60.6
2018-09-20T08:59:45.323Z,60.8
2018-09-20T09:00:35.145Z,60.9
2018-09-20T09:01:25.447Z,61
2018-09-20T09:02:15.563Z,61.1
2018-09-20T09:03:05.289Z,61.2
2018-09-20T09:03:55.637Z,61.3
2018-09-20T09:04:45.705Z,61.4
2018-09-20T09:05:35.765Z,61.5
2018-09-20T09:06:25.830Z,61.6
2018-09-20T09:07:15.895Z,61.7
2018-09-20T09:08:05.997Z,61.8
2018-09-20T09:08:56.017Z,61.9
2018-09-20T09:09:46.127Z,61.9
2018-09-20T09:10:36.145Z,62.1
2018-09-20T09:11:26.201Z,62.2
2018-09-20T09:12:16.270Z,62.3
2018-09-20T09:13:06.335Z,62.4
2018-09-20T09:13:56.397Z,62.4
2018-09-20T09:14:46.467Z,62.5
2018-09-20T09:15:36.532Z,62.6
2018-09-20T09:16:26.641Z,62.7
2018-09-20T09:17:16.640Z,62.8
2018-09-20T09:18:06.712Z,62.9
2018-09-20T09:18:56.782Z,63
2018-09-20T09:19:46.912Z,63.1
2018-09-20T09:20:36.919Z,63.2
2018-09-20T09:21:26.687Z,63.3
2018-09-20T09:22:17.329Z,63.3
2018-09-20T09:23:06.818Z,63.4
2018-09-20T09:39:59.739Z,64.8
2018-09-20T09:40:49.555Z,64.9
2018-09-20T09:41:39.616Z,65
2018-09-20T09:42:29.665Z,65
2018-09-20T09:43:19.742Z,65.1
2018-09-20T09:44:09.792Z,65.2
2018-09-20T09:45:00.095Z,65.3
2018-09-20T09:45:49.924Z,65.3
2018-09-20T09:46:39.977Z,65.4
2018-09-20T09:47:29.755Z,65.4
2018-09-20T09:48:20.113Z,65.5
2018-09-20T09:49:10.181Z,65.6
2018-09-20T09:50:00.228Z,65.6
2018-09-20T09:50:50.010Z,65.7
2018-09-20T09:51:40.339Z,65.8
2018-09-20T09:52:30.418Z,65.8
2018-09-20T09:53:20.472Z,65.9
2018-09-20T09:54:10.556Z,66
2018-09-20T09:55:00.605Z,66.1
2018-09-20T09:55:50.914Z,66.2
2018-09-20T09:56:40.737Z,66.3
2018-09-20T09:57:30.788Z,66.3
2018-09-20T09:58:20.850Z,66.3
2018-09-20T09:59:10.917Z,66.4
2018-09-20T10:00:00.999Z,66.4
2018-09-20T10:00:51.302Z,66.5
2018-09-20T10:01:40.820Z,66.6
2018-09-20T10:02:31.421Z,66.7
2018-09-20T10:03:21.260Z,66.8
2018-09-20T10:04:11.314Z,66.8
2018-09-20T10:05:01.366Z,66.9
2018-09-20T10:05:51.477Z,66.9
2018-09-20T10:06:41.499Z,67
2018-09-20T10:07:31.284Z,67.1
2018-09-20T10:08:21.623Z,67.1
2018-09-20T10:09:11.409Z,67.2
2018-09-20T10:10:01.803Z,67.2
2018-09-20T10:10:51.812Z,67.3
2018-09-20T10:11:41.578Z,67.3
2018-09-20T10:12:31.933Z,67.4
2018-09-20T10:13:22.257Z,67.4
2018-09-20T10:14:12.071Z,67.6
2018-09-20T10:15:01.895Z,67.6
2018-09-20T10:15:52.186Z,67.6
2018-09-20T10:16:42.301Z,67.7
2018-09-20T10:17:32.313Z,67.8
2018-09-20T10:18:22.378Z,67.9
2018-09-20T10:19:12.439Z,67.9
2018-09-20T10:20:02.970Z,67.9
2018-09-20T10:20:52.568Z,68
2018-09-20T10:21:42.633Z,68.1
2018-09-20T10:22:32.705Z,68.1
2018-09-20T10:23:22.766Z,68.2
2018-09-20T10:24:12.827Z,68.3
2018-09-20T10:25:02.915Z,68.3
2018-09-20T10:25:52.948Z,68.4
2018-09-20T10:26:43.072Z,68.4
2018-09-20T10:27:33.089Z,68.5
2018-09-20T10:28:23.138Z,68.5
2018-09-20T10:29:13.260Z,68.6
2018-09-20T10:30:03.282Z,68.6
2018-09-20T10:30:53.323Z,68.6
2018-09-20T10:31:43.396Z,68.8
2018-09-20T10:32:33.454Z,68.8
2018-09-20T10:33:23.525Z,68.9
2018-09-20T10:34:13.836Z,68.9
2018-09-20T10:35:03.657Z,68.9
2018-09-20T10:35:53.428Z,69
2018-09-20T10:36:43.772Z,69.1
2018-09-20T10:37:33.895Z,69.1
2018-09-20T10:38:23.955Z,69.1
2018-09-20T10:39:13.963Z,69.2
2018-09-20T10:40:03.749Z,69.3
2018-09-20T10:40:54.117Z,69.3
2018-09-20T10:41:44.168Z,69.4
2018-09-20T10:42:34.525Z,69.4
2018-09-20T10:43:24.280Z,69.4
2018-09-20T10:44:14.355Z,69.5
2018-09-20T10:45:04.435Z,69.6
2018-09-20T10:45:54.477Z,69.6
2018-09-20T10:46:44.312Z,69.7
2018-09-20T10:47:34.658Z,69.8
2018-09-20T10:48:24.654Z,69.8
2018-09-20T10:49:14.739Z,69.8
2018-09-20T10:50:04.795Z,69.9
2018-09-20T10:50:54.865Z,69.9
2018-09-20T10:51:44.920Z,70
2018-09-20T10:52:35.231Z,70
2018-09-20T10:53:25.051Z,70.1
2018-09-20T10:54:15.104Z,70.2
2018-09-20T10:55:05.162Z,70.3
2018-09-20T10:55:54.949Z,70.3
2018-09-20T10:56:45.291Z,70.3
2018-09-20T10:57:35.069Z,70.3
2018-09-20T10:58:25.434Z,70.4
2018-09-20T10:59:15.485Z,70.4
2018-09-20T11:00:05.574Z,70.5
2018-09-20T11:00:55.611Z,70.6
2018-09-20T11:01:45.671Z,70.6
2018-09-20T11:02:35.748Z,70.6
2018-09-20T11:03:26.116Z,70.6
2018-09-20T11:04:15.859Z,70.7
2018-09-20T11:05:05.929Z,70.8
2018-09-20T11:05:55.999Z,70.8
2018-09-20T11:06:46.060Z,70.8
2018-09-20T11:07:36.111Z,70.8
2018-09-20T11:08:26.191Z,70.9
2018-09-20T11:09:16.251Z,70.9
2018-09-20T11:10:06.033Z,71
2018-09-20T11:10:56.364Z,71
2018-09-20T11:11:46.444Z,71.1
2018-09-20T11:12:36.503Z,71.1
2018-09-20T11:13:26.296Z,71.1
2018-09-20T11:14:16.623Z,71.1
2018-09-20T11:15:06.403Z,71.2
2018-09-20T11:15:56.753Z,71.3
2018-09-20T11:16:46.819Z,71.3
2018-09-20T11:17:36.881Z,71.3
2018-09-20T11:18:26.945Z,71.3
2018-09-20T11:19:17.013Z,71.3
2018-09-20T11:20:07.069Z,71.4
2018-09-20T11:20:57.125Z,71.4
2018-09-20T11:21:47.222Z,71.4
2018-09-20T11:22:36.974Z,71.5
2018-09-20T11:23:27.317Z,71.5
2018-09-20T11:24:17.392Z,71.6
2018-09-20T11:25:07.456Z,71.6
2018-09-20T11:25:57.875Z,71.6
2018-09-20T11:26:47.588Z,71.7
2018-09-20T11:27:37.668Z,71.7
2018-09-20T11:28:27.701Z,71.8
2018-09-20T11:29:17.788Z,71.8
2018-09-20T11:30:07.832Z,71.8
2018-09-20T11:30:57.902Z,71.8
2018-09-20T11:31:47.962Z,71.9
2018-09-20T11:32:38.022Z,71.9
2018-09-20T11:33:28.089Z,71.9
2018-09-20T11:34:18.159Z,71.9
2018-09-20T11:35:08.212Z,71.9
2018-09-20T11:35:58.269Z,72
2018-09-20T11:36:48.406Z,72.1
2018-09-20T11:37:38.401Z,72.1
2018-09-20T11:38:28.474Z,72.1
2018-09-20T11:39:18.539Z,72.1
2018-09-20T11:40:08.604Z,72.1
2018-09-20T11:40:58.377Z,72.2
2018-09-20T11:41:48.779Z,72.2
2018-09-20T11:42:38.786Z,72.2
2018-09-20T11:43:29.806Z,72.1
2018-09-20T11:44:18.923Z,72.1
2018-09-20T11:45:09.065Z,72.1
2018-09-20T11:45:59.049Z,72.2
2018-09-20T11:46:49.129Z,72.3
2018-09-20T11:47:39.159Z,72.3
2018-09-20T11:48:29.230Z,72.3
2018-09-20T16:40:35.355Z,27
2018-09-20T16:41:25.411Z,26.9
2018-09-20T16:42:15.463Z,26.8
2018-09-20T16:43:05.523Z,26.6
2018-09-20T16:43:55.635Z,26.6
2018-09-20T16:44:45.360Z,26.4
2018-09-20T16:45:35.714Z,26.3
2018-09-20T16:46:25.775Z,26.2
2018-09-20T16:47:15.835Z,26.1
2018-09-20T16:48:05.925Z,26
2018-09-20T16:48:56.255Z,25.9
2018-09-20T16:49:46.027Z,25.8
2018-09-20T16:50:36.094Z,25.7
2018-09-20T16:51:26.147Z,25.6
2018-09-20T16:52:16.217Z,25.4
2018-09-20T16:53:06.626Z,25.4
2018-09-20T16:53:56.057Z,25.3
2018-09-20T16:54:46.407Z,25.1
2018-09-20T16:55:36.177Z,25.1
2018-09-20T16:56:26.240Z,25
2018-09-20T16:57:16.597Z,24.9
2018-09-20T16:58:06.648Z,24.8
2018-09-20T16:58:56.448Z,24.7
2018-09-20T16:59:46.779Z,24.6
2018-09-20T17:00:36.852Z,24.5
2018-09-20T17:01:26.904Z,24.4
2018-09-20T17:02:16.976Z,24.3
2018-09-20T17:03:07.030Z,24.3
2018-09-20T17:03:56.812Z,24.1
2018-09-20T17:04:47.159Z,24.1
2018-09-20T17:05:37.222Z,23.9
2018-09-20T17:06:27.288Z,23.9
2018-09-20T17:07:17.376Z,23.8
2018-09-20T17:08:07.134Z,23.7
2018-09-20T17:08:57.472Z,23.6
2018-09-20T17:09:47.546Z,23.6
2018-09-20T17:10:37.614Z,23.4
2018-09-20T17:11:27.671Z,23.4
2018-09-20T17:12:17.724Z,23.3
2018-09-20T17:13:07.578Z,23.3
2018-09-20T17:13:57.863Z,23.1
2018-09-20T17:14:48.462Z,23.1
2018-09-20T17:15:37.709Z,22.9
2018-09-20T17:16:28.244Z,22.9
2018-09-20T17:17:18.107Z,22.8
2018-09-20T17:18:08.179Z,22.8
2018-09-20T17:18:58.237Z,22.7
2018-09-20T17:19:48.365Z,22.6
2018-09-20T17:20:38.364Z,22.5
2018-09-20T17:21:28.437Z,22.4
2018-09-20T17:22:18.504Z,22.4
2018-09-20T17:23:08.555Z,22.3
2018-09-20T17:23:58.324Z,22.3
2018-09-20T17:24:48.385Z,22.2
2018-09-20T17:25:38.746Z,22.1
2018-09-20T17:26:28.801Z,22.1
2018-09-20T17:27:18.585Z,22
2018-09-20T17:28:08.925Z,21.9
2018-09-20T17:28:58.985Z,21.8
2018-09-20T17:29:49.052Z,21.8
2018-09-20T17:30:39.117Z,21.7
2018-09-20T17:31:29.186Z,21.6
2018-09-20T17:32:19.240Z,21.6
2018-09-20T17:33:09.021Z,21.5
2018-09-20T17:33:59.368Z,21.4
2018-09-20T17:34:49.427Z,21.4
2018-09-20T17:35:39.493Z,21.3
2018-09-20T17:36:29.807Z,21.3
2018-09-20T17:37:19.615Z,21.3
2018-09-20T17:39:49.235Z,21.1
2018-09-20T17:40:39.603Z,21
2018-09-20T17:41:29.465Z,20.9
2018-09-20T17:42:19.762Z,20.9
2018-09-20T17:43:10.084Z,20.8